createdAt,value
2022-08-17T00:00:13.629Z,100749.84
2022-08-17T00:03:02.950Z,100757.91
2022-08-17T00:05:31.179Z,100757.91
2022-08-17T00:07:58.970Z,100760.72
2022-08-17T00:10:26.129Z,100765.91
2022-08-17T00:12:53.262Z,100762.22
2022-08-17T00:15:21.664Z,100773.56
2022-08-17T00:17:49.847Z,100773.22
2022-08-17T00:20:17.377Z,100763.91
2022-08-17T00:22:47.238Z,100759.78
2022-08-17T00:25:18.028Z,100749.75
2022-08-17T00:27:45.121Z,100748.91
2022-08-17T00:30:12.468Z,100743.59
2022-08-17T00:33:11.614Z,100743.59
2022-08-17T00:35:31.138Z,100741.97
2022-08-17T00:37:58.133Z,100732.25
2022-08-17T00:40:25.084Z,100728.97
2022-08-17T00:42:52.864Z,100737.47
2022-08-17T00:45:20.851Z,100732.63
2022-08-17T00:47:47.913Z,100731.81
2022-08-17T00:50:15.991Z,100725.66
2022-08-17T00:52:46.008Z,100732.16
2022-08-17T00:55:13.203Z,100721.66
2022-08-17T00:57:42.862Z,100723.31
2022-08-17T01:00:22.030Z,100726.47
2022-08-17T01:02:49.266Z,100724.47
2022-08-17T01:05:20.758Z,100716.81
2022-08-17T01:07:51.292Z,100720.81
2022-08-17T01:10:58.301Z,100724.47
2022-08-17T01:13:08.073Z,100712.69
2022-08-17T01:15:39.335Z,100715.53
2022-08-17T01:18:09.699Z,100720.34
2022-08-17T01:20:48.002Z,100715.16
2022-08-17T01:23:21.028Z,100711.88
2022-08-17T01:25:56.679Z,100711.03
2022-08-17T01:28:33.405Z,100707.03
2022-08-17T01:31:11.342Z,100713.50
2022-08-17T01:33:38.082Z,100711.03
2022-08-17T01:36:07.406Z,100717.03
2022-08-17T01:38:37.502Z,100711.03
2022-08-17T01:41:07.080Z,100697.22
2022-08-17T01:43:52.552Z,100702.31
2022-08-17T01:46:24.509Z,100700.66
2022-08-17T01:48:52.864Z,100691.84
2022-08-17T01:51:20.271Z,100685.34
2022-08-17T01:53:54.544Z,100689.81
2022-08-17T01:56:24.137Z,100687.22
2022-08-17T01:58:50.952Z,100691.00
2022-08-17T02:01:18.865Z,100688.72
2022-08-17T02:03:59.176Z,100695.72
2022-08-17T02:06:30.004Z,100700.41
2022-08-17T02:09:01.672Z,100699.59
2022-08-17T02:11:29.062Z,100698.28
2022-08-17T02:14:01.050Z,100712.22
2022-08-17T02:16:37.174Z,100714.31
2022-08-17T02:19:09.984Z,100722.38
2022-08-17T02:21:37.869Z,100721.41
2022-08-17T02:24:05.854Z,100716.91
2022-08-17T02:26:32.762Z,100724.91
2022-08-17T02:28:59.665Z,100730.56
2022-08-17T02:31:26.610Z,100729.75
2022-08-17T02:34:03.423Z,100750.75
2022-08-17T02:36:32.253Z,100750.38
2022-08-17T02:39:00.371Z,100760.09
2022-08-17T02:41:27.188Z,100756.88
2022-08-17T02:43:54.043Z,100752.38
2022-08-17T02:46:21.001Z,100754.06
2022-08-17T02:48:47.808Z,100755.59
2022-08-17T02:51:14.912Z,100747.78
2022-08-17T02:53:51.340Z,100749.44
2022-08-17T02:56:18.417Z,100754.41
2022-08-17T02:58:46.617Z,100751.09
2022-08-17T03:01:13.694Z,100759.94
2022-08-17T03:03:40.900Z,100765.97
2022-08-17T03:06:10.950Z,100754.25
2022-08-17T03:08:38.452Z,100746.38
2022-08-17T03:11:08.401Z,100744.59
2022-08-17T03:13:35.441Z,100752.63
2022-08-17T03:16:02.223Z,100749.94
2022-08-17T03:18:29.097Z,100762.41
2022-08-17T03:20:57.276Z,100757.47
2022-08-17T03:23:25.356Z,100769.94
2022-08-17T03:25:53.499Z,100770.66
2022-08-17T03:28:21.249Z,100762.97
2022-08-17T03:30:48.510Z,100765.00
2022-08-17T03:33:16.499Z,100766.28
2022-08-17T03:35:43.920Z,100766.16
2022-08-17T03:38:11.635Z,100761.69
2022-08-17T03:40:57.941Z,100766.50
2022-08-17T03:43:26.929Z,100770.88
2022-08-17T03:46:28.159Z,100773.31
2022-08-17T03:49:18.149Z,100775.31
2022-08-17T03:52:07.304Z,100765.88
2022-08-17T03:54:52.672Z,100772.03
2022-08-17T03:57:19.606Z,100775.31
2022-08-17T03:59:46.489Z,100766.38
2022-08-17T04:02:17.791Z,100765.88
2022-08-17T04:04:44.964Z,100769.22
2022-08-17T04:07:12.374Z,100767.84
2022-08-17T04:09:39.425Z,100764.22
2022-08-17T04:12:06.413Z,100761.19
2022-08-17T04:14:51.712Z,100767.84
2022-08-17T04:17:21.521Z,100756.91
2022-08-17T04:19:48.302Z,100766.22
2022-08-17T04:22:31.318Z,100768.22
2022-08-17T04:25:01.878Z,100772.22
2022-08-17T04:27:28.751Z,100769.03
2022-08-17T04:29:56.187Z,100765.72
2022-08-17T04:33:03.813Z,100770.56
2022-08-17T04:35:10.372Z,100769.03
2022-08-17T04:37:37.452Z,100768.22
2022-08-17T04:40:22.890Z,100769.03
2022-08-17T04:43:04.186Z,100769.38
2022-08-17T04:45:32.395Z,100758.41
2022-08-17T04:48:00.136Z,100765.72
2022-08-17T04:50:27.320Z,100770.09
2022-08-17T04:52:54.416Z,100771.38
2022-08-17T04:55:21.857Z,100761.59
2022-08-17T04:57:48.929Z,100755.44
2022-08-17T05:00:15.998Z,100750.97
2022-08-17T05:02:51.111Z,100750.13
2022-08-17T05:05:22.551Z,100750.97
2022-08-17T05:07:52.465Z,100747.28
2022-08-17T05:10:20.369Z,100749.78
2022-08-17T05:12:47.292Z,100740.97
2022-08-17T05:15:17.365Z,100732.81
2022-08-17T05:17:46.997Z,100732.47
2022-08-17T05:20:13.718Z,100726.69
2022-08-17T05:22:47.108Z,100736.81
2022-08-17T05:25:14.665Z,100750.50
2022-08-17T05:27:41.742Z,100752.50
2022-08-17T05:30:09.890Z,100752.94
2022-08-17T05:32:38.121Z,100761.81
2022-08-17T05:35:06.780Z,100752.94
2022-08-17T05:37:33.550Z,100767.94
2022-08-17T05:40:00.364Z,100764.97
2022-08-17T05:42:27.181Z,100770.63
2022-08-17T05:44:56.841Z,100768.13
2022-08-17T05:47:25.162Z,100771.66
2022-08-17T05:49:53.801Z,100770.50
2022-08-17T05:52:30.741Z,100780.97
2022-08-17T05:54:57.487Z,100792.78
2022-08-17T05:57:53.085Z,100789.81
2022-08-17T06:00:42.306Z,100801.63
2022-08-17T06:03:27.329Z,100806.09
2022-08-17T06:06:12.740Z,100815.75
2022-08-17T06:08:56.529Z,100812.09
2022-08-17T06:11:28.887Z,100810.31
2022-08-17T06:14:13.613Z,100810.09
2022-08-17T06:16:43.537Z,100807.97
2022-08-17T06:19:19.230Z,100797.13
2022-08-17T06:21:53.134Z,100810.81
2022-08-17T06:24:23.058Z,100809.59
2022-08-17T06:26:50.657Z,100809.13
2022-08-17T06:29:18.587Z,100813.97
2022-08-17T06:31:51.206Z,100819.63
2022-08-17T06:34:18.273Z,100826.94
2022-08-17T06:36:49.589Z,100826.13
2022-08-17T06:39:35.573Z,100833.75
2022-08-17T06:42:05.786Z,100842.13
2022-08-17T06:44:54.229Z,100847.34
2022-08-17T06:47:36.315Z,100854.88
2022-08-17T06:50:14.654Z,100848.75
2022-08-17T06:52:57.928Z,100851.69
2022-08-17T06:55:57.066Z,100846.56
2022-08-17T06:58:24.267Z,100852.22
2022-08-17T07:00:59.240Z,100854.41
2022-08-17T07:03:54.800Z,100842.59
2022-08-17T07:06:23.985Z,100848.75
2022-08-17T07:08:53.419Z,100843.75
2022-08-17T07:11:26.018Z,100847.91
2022-08-17T07:14:15.302Z,100845.53
2022-08-17T07:16:48.036Z,100857.22
2022-08-17T07:19:17.031Z,100863.22
2022-08-17T07:21:56.004Z,100867.56
2022-08-17T07:24:33.365Z,100872.53
2022-08-17T07:27:11.883Z,100874.88
2022-08-17T07:29:43.149Z,100879.34
2022-08-17T07:32:11.269Z,100878.69
2022-08-17T07:34:56.638Z,100873.50
2022-08-17T07:37:23.293Z,100888.34
2022-08-17T07:40:15.414Z,100893.88
2022-08-17T07:42:36.623Z,100903.16
2022-08-17T07:45:23.397Z,100912.41
2022-08-17T07:48:10.712Z,100919.78
2022-08-17T07:50:42.440Z,100915.59
2022-08-17T07:53:18.212Z,100919.47
2022-08-17T07:55:45.548Z,100925.78
2022-08-17T07:58:20.261Z,100930.78
2022-08-17T08:00:47.055Z,100936.44
2022-08-17T08:03:15.852Z,100939.13
2022-08-17T08:05:50.946Z,100933.47
2022-08-17T08:08:32.963Z,100937.09
2022-08-17T08:11:15.695Z,100941.38
2022-08-17T08:13:43.930Z,100930.22
2022-08-17T08:16:24.593Z,100941.38
2022-08-17T08:18:57.544Z,100933.22
2022-08-17T08:21:49.439Z,100929.44
2022-08-17T08:24:30.708Z,100917.50
2022-08-17T08:27:08.240Z,100921.97
2022-08-17T08:29:34.847Z,100918.81
2022-08-17T08:32:10.743Z,100922.63
2022-08-17T08:35:02.672Z,100922.47
2022-08-17T08:38:08.187Z,100914.69
2022-08-17T08:40:46.228Z,100913.28
2022-08-17T08:43:18.533Z,100917.28
2022-08-17T08:46:00.729Z,100920.13
2022-08-17T08:48:53.101Z,100914.31
2022-08-17T08:51:17.613Z,100911.16
2022-08-17T08:54:07.047Z,100915.66
2022-08-17T08:57:19.749Z,100928.97
2022-08-17T08:59:51.131Z,100918.75
2022-08-17T09:02:43.834Z,100913.94
2022-08-17T09:05:26.337Z,100922.75
2022-08-17T09:08:03.700Z,100927.44
2022-08-17T09:10:35.111Z,100919.94
2022-08-17T09:13:09.869Z,100927.09
2022-08-17T09:15:46.529Z,100917.78
2022-08-17T09:19:03.034Z,100919.09
2022-08-17T09:21:19.485Z,100927.44
2022-08-17T09:23:46.626Z,100921.59
2022-08-17T09:26:25.904Z,100919.94
2022-08-17T09:28:53.829Z,100922.75
2022-08-17T09:31:22.142Z,100921.13
2022-08-17T09:33:49.286Z,100928.78
2022-08-17T09:36:21.037Z,100929.59
2022-08-17T09:39:02.490Z,100931.25
2022-08-17T09:41:50.870Z,100947.88
2022-08-17T09:44:27.161Z,100940.22
2022-08-17T09:46:56.415Z,100941.72
2022-08-17T09:49:35.435Z,100941.38
2022-08-17T09:52:11.547Z,100938.09
2022-08-17T09:54:40.535Z,100938.56
2022-08-17T09:57:28.605Z,100944.22
2022-08-17T09:59:57.306Z,100943.06
2022-08-17T10:02:25.372Z,100948.38
2022-08-17T10:04:54.877Z,100955.69
2022-08-17T10:07:30.708Z,100953.00
2022-08-17T10:10:07.796Z,100964.81
2022-08-17T10:12:47.031Z,100959.47
2022-08-17T10:15:25.554Z,100966.66
2022-08-17T10:18:05.998Z,100965.97
2022-08-17T10:20:51.085Z,100961.28
2022-08-17T10:23:45.312Z,100970.28
2022-08-17T10:26:19.486Z,100962.47
2022-08-17T10:28:52.935Z,100968.13
2022-08-17T10:31:35.825Z,100964.59
2022-08-17T10:34:05.971Z,100962.13
2022-08-17T10:36:40.216Z,100963.09
2022-08-17T10:39:19.678Z,100967.44
2022-08-17T10:41:56.761Z,100967.78
2022-08-17T10:44:38.658Z,100965.31
2022-08-17T10:47:09.933Z,100966.28
2022-08-17T10:49:38.139Z,100969.59
2022-08-17T10:52:27.938Z,100962.63
2022-08-17T10:54:58.359Z,100947.31
2022-08-17T10:57:34.394Z,100946.78
2022-08-17T11:00:15.661Z,100945.81
2022-08-17T11:02:50.344Z,100944.97
2022-08-17T11:05:38.993Z,100933.31
2022-08-17T11:08:21.446Z,100938.28
2022-08-17T11:10:52.507Z,100930.63
2022-08-17T11:13:28.244Z,100924.63
2022-08-17T11:16:04.844Z,100923.94
2022-08-17T11:18:40.614Z,100921.09
2022-08-17T11:21:17.549Z,100923.59
2022-08-17T11:23:45.170Z,100922.78
2022-08-17T11:26:22.246Z,100920.78
2022-08-17T11:28:52.580Z,100911.91
2022-08-17T11:31:38.015Z,100917.75
2022-08-17T11:34:15.307Z,100910.09
2022-08-17T11:37:02.710Z,100908.88
2022-08-17T11:39:35.555Z,100911.38
2022-08-17T11:42:02.245Z,100914.34
2022-08-17T11:44:37.877Z,100910.84
2022-08-17T11:47:23.293Z,100909.19
2022-08-17T11:50:08.229Z,100905.97
2022-08-17T11:52:37.023Z,100909.66
2022-08-17T11:55:33.486Z,100892.00
2022-08-17T11:58:01.228Z,100903.78
2022-08-17T12:00:52.045Z,100897.78
2022-08-17T12:03:26.268Z,100901.44
2022-08-17T12:06:02.602Z,100893.78
2022-08-17T12:08:32.818Z,100900.75
2022-08-17T12:11:02.205Z,100903.56
2022-08-17T12:13:39.769Z,100899.56
2022-08-17T12:16:07.419Z,100896.38
2022-08-17T12:18:38.497Z,100894.88
2022-08-17T12:21:17.737Z,100893.22
2022-08-17T12:23:51.345Z,100887.53
2022-08-17T12:26:20.056Z,100892.03
2022-08-17T12:28:57.429Z,100893.22
2022-08-17T12:31:37.287Z,100895.22
2022-08-17T12:34:05.157Z,100894.03
2022-08-17T12:36:33.009Z,100885.88
2022-08-17T12:39:12.986Z,100883.41
2022-08-17T12:41:55.446Z,100889.06
2022-08-17T12:44:30.783Z,100882.59
2022-08-17T12:47:04.811Z,100884.25
2022-08-17T12:49:33.446Z,100888.25
2022-08-17T12:52:05.090Z,100889.06
2022-08-17T12:54:34.545Z,100889.06
2022-08-17T12:57:05.027Z,100893.91
2022-08-17T12:59:33.352Z,100898.75
2022-08-17T13:02:00.896Z,100894.25
2022-08-17T13:04:29.522Z,100892.59
2022-08-17T13:07:00.071Z,100890.13
2022-08-17T13:09:35.888Z,100892.94
2022-08-17T13:12:07.895Z,100890.13
2022-08-17T13:14:36.501Z,100897.78
2022-08-17T13:17:11.132Z,100897.78
2022-08-17T13:19:48.431Z,100895.66
2022-08-17T13:22:15.067Z,100890.78
2022-08-17T13:24:53.335Z,100892.00
2022-08-17T13:27:21.057Z,100896.44
2022-08-17T13:29:51.542Z,100901.31
2022-08-17T13:32:20.020Z,100905.31
2022-08-17T13:34:59.646Z,100912.97
2022-08-17T13:37:35.151Z,100921.13
2022-08-17T13:40:26.101Z,100919.94
2022-08-17T13:42:54.389Z,100928.78
2022-08-17T13:45:39.572Z,100931.97
2022-08-17T13:48:11.820Z,100942.44
2022-08-17T13:50:45.933Z,100945.28
2022-08-17T13:53:18.522Z,100948.09
2022-08-17T13:56:00.364Z,100956.59
2022-08-17T13:58:33.007Z,100954.59
2022-08-17T14:01:19.665Z,100949.28
2022-08-17T14:03:46.408Z,100955.09
2022-08-17T14:06:52.425Z,100972.09
2022-08-17T14:09:05.101Z,100968.13
2022-08-17T14:11:31.746Z,100974.09
2022-08-17T14:13:58.927Z,100977.78
2022-08-17T14:16:25.654Z,100975.13
2022-08-17T14:18:56.779Z,100974.94
2022-08-17T14:21:24.006Z,100976.47
2022-08-17T14:23:54.578Z,100977.78
2022-08-17T14:26:21.882Z,100979.31
2022-08-17T14:28:56.212Z,100970.00
2022-08-17T14:31:23.670Z,100968.44
2022-08-17T14:33:50.318Z,100977.31
2022-08-17T14:36:17.017Z,100976.34
2022-08-17T14:38:45.258Z,100992.16
2022-08-17T14:41:11.965Z,100985.16
2022-08-17T14:43:40.083Z,100988.50
2022-08-17T14:46:06.780Z,100988.84
2022-08-17T14:48:39.941Z,100992.00
2022-08-17T14:51:07.242Z,100986.19
2022-08-17T14:53:33.921Z,100976.41
2022-08-17T14:56:01.786Z,100978.22
2022-08-17T14:58:29.775Z,100975.22
2022-08-17T15:00:57.131Z,100984.53
2022-08-17T15:03:23.872Z,100982.19
2022-08-17T15:05:50.537Z,100985.50
2022-08-17T15:08:17.665Z,100996.81
2022-08-17T15:10:45.224Z,100990.97
2022-08-17T15:13:20.763Z,101007.81
2022-08-17T15:15:47.749Z,101010.16
2022-08-17T15:18:14.779Z,101008.00
2022-08-17T15:20:42.157Z,101024.97
2022-08-17T15:23:12.668Z,101028.66
2022-08-17T15:25:39.476Z,101043.50
2022-08-17T15:28:07.617Z,101041.13
2022-08-17T15:30:34.866Z,101049.00
2022-08-17T15:33:02.294Z,101046.50
2022-08-17T15:35:32.200Z,101049.34
2022-08-17T15:38:06.204Z,101048.66
2022-08-17T15:40:38.152Z,101055.66
2022-08-17T15:43:06.164Z,101057.47
2022-08-17T15:45:33.887Z,101056.16
2022-08-17T15:48:00.749Z,101049.69
2022-08-17T15:50:27.704Z,101075.13
2022-08-17T15:52:58.664Z,101075.13
2022-08-17T15:55:26.578Z,101063.81
2022-08-17T15:57:53.438Z,101065.31
2022-08-17T16:00:20.374Z,101054.00
2022-08-17T16:03:45.050Z,101049.00
2022-08-17T16:05:35.418Z,101058.16
2022-08-17T16:08:02.468Z,101055.47
2022-08-17T16:10:35.212Z,101047.81
2022-08-17T16:13:03.007Z,101056.50
2022-08-17T16:15:31.406Z,101046.84
2022-08-17T16:17:58.164Z,101046.53
2022-08-17T16:20:24.810Z,101051.19
2022-08-17T16:22:51.758Z,101043.88
2022-08-17T16:25:49.048Z,101041.03
2022-08-17T16:28:15.264Z,101033.41
2022-08-17T16:30:41.970Z,101037.06
2022-08-17T16:33:09.731Z,101029.22
2022-08-17T16:35:36.372Z,101031.59
2022-08-17T16:38:03.228Z,101024.75
2022-08-17T16:40:31.251Z,101029.22
2022-08-17T16:43:02.755Z,101015.44
2022-08-17T16:45:37.018Z,101018.28
2022-08-17T16:48:04.283Z,101018.09
2022-08-17T16:50:32.184Z,101024.22
2022-08-17T16:53:10.841Z,101026.25
2022-08-17T16:55:38.419Z,101021.94
2022-08-17T16:58:06.342Z,101021.44
2022-08-17T17:00:33.844Z,101012.44
2022-08-17T17:03:19.444Z,101012.28
2022-08-17T17:06:08.362Z,101007.97
2022-08-17T17:08:42.067Z,101011.41
2022-08-17T17:11:13.902Z,101008.44
2022-08-17T17:13:43.950Z,100997.00
2022-08-17T17:16:16.724Z,101004.66
2022-08-17T17:18:53.002Z,101004.97
2022-08-17T17:21:25.190Z,101002.16
2022-08-17T17:23:51.906Z,100999.69
2022-08-17T17:26:21.530Z,101001.66
2022-08-17T17:28:57.196Z,101006.50
2022-08-17T17:31:25.626Z,101002.50
2022-08-17T17:33:55.833Z,101001.66
2022-08-17T17:36:25.650Z,101013.97
2022-08-17T17:38:54.246Z,101017.13
2022-08-17T17:41:27.698Z,101018.13
2022-08-17T17:44:01.886Z,101022.31
2022-08-17T17:46:35.356Z,101030.44
2022-08-17T17:49:02.116Z,101037.75
2022-08-17T17:52:06.719Z,101034.28
2022-08-17T17:54:54.503Z,101047.91
2022-08-17T17:57:47.163Z,101036.59
2022-08-17T18:00:15.806Z,101031.63
2022-08-17T18:02:51.503Z,101038.25
2022-08-17T18:05:37.494Z,101048.59
2022-08-17T18:08:11.053Z,101054.41
2022-08-17T18:10:48.982Z,101060.88
2022-08-17T18:13:26.690Z,101070.03
2022-08-17T18:15:54.645Z,101069.22
2022-08-17T18:18:24.367Z,101077.53
2022-08-17T18:20:53.896Z,101078.72
2022-08-17T18:23:27.914Z,101089.19
2022-08-17T18:25:56.274Z,101092.19
2022-08-17T18:28:32.098Z,101089.22
2022-08-17T18:31:19.053Z,101087.34
2022-08-17T18:33:47.568Z,101099.16
2022-08-17T18:36:25.846Z,101099.00
2022-08-17T18:39:09.183Z,101096.31
2022-08-17T18:41:46.720Z,101109.00
2022-08-17T18:44:22.111Z,101110.16
2022-08-17T18:47:05.024Z,101117.31
2022-08-17T18:49:31.718Z,101120.78
2022-08-17T18:52:30.654Z,101122.63
2022-08-17T18:55:16.160Z,101130.78
2022-08-17T18:57:55.733Z,101129.13
2022-08-17T19:00:46.313Z,101133.94
2022-08-17T19:03:16.288Z,101130.66
2022-08-17T19:05:45.195Z,101132.63
2022-08-17T19:08:14.806Z,101139.75
2022-08-17T19:10:46.962Z,101142.44
2022-08-17T19:13:24.462Z,101142.28
2022-08-17T19:16:10.118Z,101144.94
2022-08-17T19:18:58.997Z,101145.78
2022-08-17T19:21:46.925Z,101145.94
2022-08-17T19:24:23.441Z,101148.09
2022-08-17T19:26:59.126Z,101151.44
2022-08-17T19:29:35.098Z,101157.41
2022-08-17T19:32:02.405Z,101146.41
2022-08-17T19:34:33.495Z,101150.25
2022-08-17T19:37:07.182Z,101166.41
2022-08-17T19:39:49.409Z,101161.25
2022-08-17T19:42:47.599Z,101171.41
2022-08-17T19:45:19.690Z,101172.88
2022-08-17T19:48:00.529Z,101165.22
2022-08-17T19:50:41.616Z,101188.84
2022-08-17T19:53:20.016Z,101174.56
2022-08-17T19:55:47.898Z,101183.72
2022-08-17T19:58:24.233Z,101195.34
2022-08-17T20:00:53.068Z,101186.19
2022-08-17T20:03:40.138Z,101188.38
2022-08-17T20:06:12.911Z,101185.38
2022-08-17T20:08:58.366Z,101186.69
2022-08-17T20:11:50.396Z,101178.72
2022-08-17T20:14:22.222Z,101179.53
2022-08-17T20:16:49.371Z,101180.38
2022-08-17T20:19:30.153Z,101181.72
2022-08-17T20:21:57.578Z,101185.56
2022-08-17T20:24:30.465Z,101194.50
2022-08-17T20:26:59.883Z,101196.19
2022-08-17T20:29:37.206Z,101205.19
2022-08-17T20:32:07.692Z,101199.69
2022-08-17T20:34:38.019Z,101201.16
2022-08-17T20:37:25.642Z,101202.00
2022-08-17T20:39:53.126Z,101199.00
2022-08-17T20:42:20.186Z,101199.00
2022-08-17T20:44:52.314Z,101200.34
2022-08-17T20:47:29.428Z,101201.16
2022-08-17T20:50:00.423Z,101201.84
2022-08-17T20:52:36.561Z,101200.34
2022-08-17T20:55:04.705Z,101205.50
2022-08-17T20:57:34.441Z,101198.00
2022-08-17T21:00:16.783Z,101186.03
2022-08-17T21:02:49.874Z,101183.72
2022-08-17T21:05:40.624Z,101189.38
2022-08-17T21:08:13.335Z,101189.22
2022-08-17T21:10:40.720Z,101191.22
2022-08-17T21:13:16.070Z,101190.84
2022-08-17T21:15:48.668Z,101194.69
2022-08-17T21:18:50.843Z,101195.53
2022-08-17T21:21:20.156Z,101202.00
2022-08-17T21:23:49.913Z,101196.19
2022-08-17T21:26:26.711Z,101194.69
2022-08-17T21:29:31.086Z,101203.69
2022-08-17T21:31:59.420Z,101212.47
2022-08-17T21:34:39.686Z,101209.50
2022-08-17T21:37:24.286Z,101216.00
2022-08-17T21:39:55.758Z,101218.31
2022-08-17T21:42:26.747Z,101223.78
2022-08-17T21:44:54.699Z,101227.31
2022-08-17T21:47:24.707Z,101228.97
2022-08-17T21:49:52.628Z,101229.28
2022-08-17T21:52:21.975Z,101228.78
2022-08-17T21:54:50.786Z,101238.44
2022-08-17T21:57:22.331Z,101238.28
2022-08-17T22:00:00.345Z,101234.94
2022-08-17T22:02:29.818Z,101243.75
2022-08-17T22:05:02.503Z,101246.41
2022-08-17T22:07:37.242Z,101253.59
2022-08-17T22:10:05.106Z,101237.78
2022-08-17T22:12:31.864Z,101247.56
2022-08-17T22:15:04.349Z,101250.59
2022-08-17T22:17:36.768Z,101255.56
2022-08-17T22:20:07.063Z,101252.59
2022-08-17T22:22:57.393Z,101248.91
2022-08-17T22:25:25.942Z,101257.06
2022-08-17T22:27:52.834Z,101248.09
2022-08-17T22:30:22.516Z,101253.91
2022-08-17T22:32:50.071Z,101249.25
2022-08-17T22:35:26.314Z,101254.06
2022-08-17T22:37:53.102Z,101250.41
2022-08-17T22:40:29.193Z,101248.41
2022-08-17T22:42:57.740Z,101251.41
2022-08-17T22:45:30.017Z,101256.56
2022-08-17T22:47:57.786Z,101258.03
2022-08-17T22:50:31.821Z,101260.06
2022-08-17T22:53:18.805Z,101257.25
2022-08-17T22:56:07.846Z,101254.72
2022-08-17T22:58:59.115Z,101255.56
2022-08-17T23:01:28.846Z,101254.56
2022-08-17T23:04:01.420Z,101255.22
2022-08-17T23:06:28.685Z,101258.41
2022-08-17T23:08:56.781Z,101258.72
2022-08-17T23:11:36.711Z,101255.56
2022-08-17T23:14:16.754Z,101256.06
2022-08-17T23:16:43.399Z,101253.91
2022-08-17T23:19:11.140Z,101246.09
2022-08-17T23:21:37.879Z,101249.75
2022-08-17T23:24:05.878Z,101246.41
2022-08-17T23:26:36.133Z,101249.25
2022-08-17T23:29:04.651Z,101260.22
2022-08-17T23:31:34.897Z,101260.03
2022-08-17T23:34:03.207Z,101253.56
2022-08-17T23:36:31.870Z,101263.22
2022-08-17T23:38:58.676Z,101253.56
2022-08-17T23:41:31.795Z,101259.22
2022-08-17T23:43:59.382Z,101266.53
2022-08-17T23:46:26.083Z,101258.41
2022-08-17T23:48:53.768Z,101262.84
2022-08-17T23:51:22.788Z,101273.16
2022-08-17T23:53:58.306Z,101256.03
2022-08-17T23:56:25.993Z,101258.16
2022-08-17T23:58:54.923Z,101263.69
